Terminal Aerodrome Forecast
Issued by NWS

Home | Current Version | Previous Version | Text Only | Print | Product List | Glossary On
Versions: 1 2 3 4 5 6 7 8 9 10 11 12 13 14 15
650
FTUS45 KABQ 261122
TAFSAF
TAF
KSAF 261122Z 2612/2712 15005KT P6SM BKN120
     FM261700 23007KT P6SM SCT080
     FM262300 10010KT P6SM VCTS BKN070CB
     FM270200 13010KT P6SM -SHRA OVC060
     FM270900 36008KT P6SM SCT060 BKN100=

USA.gov is the U.S. government's official web portal to all federal, state and local government web resources and services.